sensor_id;sensor_type;location;lat;lon;timestamp;temperature;humidity
37285;DHT22;23172;53.550;9.964;2023-10-08T00:01:09;14.30;99.90
37285;DHT22;23172;53.550;9.964;2023-10-08T00:06:14;14.20;99.90
37285;DHT22;23172;53.550;9.964;2023-10-08T00:11:19;14.30;99.90
37285;DHT22;23172;53.550;9.964;2023-10-08T00:16:23;14.20;99.90
37285;DHT22;23172;53.550;9.964;2023-10-08T00:21:25;14.20;99.90
37285;DHT22;23172;53.550;9.964;2023-10-08T00:26:29;14.20;99.90
37285;DHT22;23172;53.550;9.964;2023-10-08T00:31:31;14.20;99.90
37285;DHT22;23172;53.550;9.964;2023-10-08T00:36:38;14.20;99.90
37285;DHT22;23172;53.550;9.964;2023-10-08T00:41:42;14.20;99.90
37285;DHT22;23172;53.550;9.964;2023-10-08T00:46:45;14.20;99.90
37285;DHT22;23172;53.550;9.964;2023-10-08T00:51:50;14.20;99.90
37285;DHT22;23172;53.550;9.964;2023-10-08T00:57:02;14.20;99.90
37285;DHT22;23172;53.550;9.964;2023-10-08T01:02:06;14.10;99.90
37285;DHT22;23172;53.550;9.964;2023-10-08T01:07:15;14.10;99.90
37285;DHT22;23172;53.550;9.964;2023-10-08T01:12:20;14.10;99.90
37285;DHT22;23172;53.550;9.964;2023-10-08T01:17:24;14.10;99.90
37285;DHT22;23172;53.550;9.964;2023-10-08T01:22:33;14.20;99.90
37285;DHT22;23172;53.550;9.964;2023-10-08T01:27:35;14.20;99.90
37285;DHT22;23172;53.550;9.964;2023-10-08T01:32:38;14.20;99.90
37285;DHT22;23172;53.550;9.964;2023-10-08T01:37:42;14.10;99.90
37285;DHT22;23172;53.550;9.964;2023-10-08T01:42:50;14.10;99.90
37285;DHT22;23172;53.550;9.964;2023-10-08T01:47:53;14.10;99.90
37285;DHT22;23172;53.550;9.964;2023-10-08T01:52:56;14.10;99.90
37285;DHT22;23172;53.550;9.964;2023-10-08T01:58:01;14.10;99.90
37285;DHT22;23172;53.550;9.964;2023-10-08T02:03:04;14.10;99.90
37285;DHT22;23172;53.550;9.964;2023-10-08T02:08:09;14.10;99.90
37285;DHT22;23172;53.550;9.964;2023-10-08T02:13:11;14.20;99.90
37285;DHT22;23172;53.550;9.964;2023-10-08T02:18:13;14.10;99.90
37285;DHT22;23172;53.550;9.964;2023-10-08T02:23:17;14.10;99.90
37285;DHT22;23172;53.550;9.964;2023-10-08T02:28:18;14.10;99.90
37285;DHT22;23172;53.550;9.964;2023-10-08T02:33:21;14.10;99.90
37285;DHT22;23172;53.550;9.964;2023-10-08T02:38:24;14.10;99.90
37285;DHT22;23172;53.550;9.964;2023-10-08T02:43:29;14.10;99.90
37285;DHT22;23172;53.550;9.964;2023-10-08T02:48:31;14.10;99.90
37285;DHT22;23172;53.550;9.964;2023-10-08T02:53:34;14.10;99.90
37285;DHT22;23172;53.550;9.964;2023-10-08T02:58:36;14.00;99.90
37285;DHT22;23172;53.550;9.964;2023-10-08T03:03:40;14.00;99.90
37285;DHT22;23172;53.550;9.964;2023-10-08T03:08:43;14.10;99.90
37285;DHT22;23172;53.550;9.964;2023-10-08T03:13:48;14.10;99.90
37285;DHT22;23172;53.550;9.964;2023-10-08T03:18:52;14.10;99.90
37285;DHT22;23172;53.550;9.964;2023-10-08T03:23:56;14.10;99.90
37285;DHT22;23172;53.550;9.964;2023-10-08T03:29:04;14.00;99.90
37285;DHT22;23172;53.550;9.964;2023-10-08T03:34:08;14.00;99.90
37285;DHT22;23172;53.550;9.964;2023-10-08T03:39:15;14.00;99.90
37285;DHT22;23172;53.550;9.964;2023-10-08T03:44:19;14.00;99.90
37285;DHT22;23172;53.550;9.964;2023-10-08T03:49:21;14.00;99.90
37285;DHT22;23172;53.550;9.964;2023-10-08T03:54:29;14.00;99.90
37285;DHT22;23172;53.550;9.964;2023-10-08T03:59:36;13.90;99.90
37285;DHT22;23172;53.550;9.964;2023-10-08T04:04:41;13.90;99.90
37285;DHT22;23172;53.550;9.964;2023-10-08T04:09:54;13.90;99.90
37285;DHT22;23172;53.550;9.964;2023-10-08T04:15:18;13.90;99.90
37285;DHT22;23172;53.550;9.964;2023-10-08T04:20:20;13.90;99.90
37285;DHT22;23172;53.550;9.964;2023-10-08T04:25:40;13.90;99.90
37285;DHT22;23172;53.550;9.964;2023-10-08T04:30:43;13.90;99.90
37285;DHT22;23172;53.550;9.964;2023-10-08T04:35:46;13.90;99.90
37285;DHT22;23172;53.550;9.964;2023-10-08T04:40:53;13.90;99.90
37285;DHT22;23172;53.550;9.964;2023-10-08T04:45:55;13.90;99.90
37285;DHT22;23172;53.550;9.964;2023-10-08T04:50:57;13.80;99.90
37285;DHT22;23172;53.550;9.964;2023-10-08T04:56:05;13.80;99.90
37285;DHT22;23172;53.550;9.964;2023-10-08T05:01:13;13.80;99.90
37285;DHT22;23172;53.550;9.964;2023-10-08T05:06:18;13.80;99.90
37285;DHT22;23172;53.550;9.964;2023-10-08T05:11:41;13.80;99.90
37285;DHT22;23172;53.550;9.964;2023-10-08T05:17:08;13.80;99.90
37285;DHT22;23172;53.550;9.964;2023-10-08T05:22:13;13.80;99.90
37285;DHT22;23172;53.550;9.964;2023-10-08T05:27:37;13.80;99.90
37285;DHT22;23172;53.550;9.964;2023-10-08T05:32:57;13.70;99.90
37285;DHT22;23172;53.550;9.964;2023-10-08T05:38:17;13.70;99.90
37285;DHT22;23172;53.550;9.964;2023-10-08T05:43:35;13.70;99.70
37285;DHT22;23172;53.550;9.964;2023-10-08T05:48:57;13.60;99.60
37285;DHT22;23172;53.550;9.964;2023-10-08T05:54:03;13.60;99.60
37285;DHT22;23172;53.550;9.964;2023-10-08T05:59:26;13.60;99.70
37285;DHT22;23172;53.550;9.964;2023-10-08T06:04:39;13.60;99.80
37285;DHT22;23172;53.550;9.964;2023-10-08T06:10:10;13.60;99.80
37285;DHT22;23172;53.550;9.964;2023-10-08T06:15:28;13.60;99.80
37285;DHT22;23172;53.550;9.964;2023-10-08T06:20:45;13.60;99.80
37285;DHT22;23172;53.550;9.964;2023-10-08T06:25:47;13.60;99.80
37285;DHT22;23172;53.550;9.964;2023-10-08T06:30:58;13.60;99.70
37285;DHT22;23172;53.550;9.964;2023-10-08T06:36:00;13.60;99.80
37285;DHT22;23172;53.550;9.964;2023-10-08T06:41:04;13.60;99.70
37285;DHT22;23172;53.550;9.964;2023-10-08T06:46:10;13.60;99.70
37285;DHT22;23172;53.550;9.964;2023-10-08T06:51:13;13.60;99.50
37285;DHT22;23172;53.550;9.964;2023-10-08T06:56:16;13.60;99.50
37285;DHT22;23172;53.550;9.964;2023-10-08T07:01:21;13.60;99.50
37285;DHT22;23172;53.550;9.964;2023-10-08T07:06:25;13.70;99.50
37285;DHT22;23172;53.550;9.964;2023-10-08T07:11:32;13.70;99.10
37285;DHT22;23172;53.550;9.964;2023-10-08T07:16:36;13.70;99.00
37285;DHT22;23172;53.550;9.964;2023-10-08T07:21:40;13.80;98.90
37285;DHT22;23172;53.550;9.964;2023-10-08T07:26:45;13.80;98.60
37285;DHT22;23172;53.550;9.964;2023-10-08T07:31:51;13.80;98.20
37285;DHT22;23172;53.550;9.964;2023-10-08T07:36:54;13.80;97.60
37285;DHT22;23172;53.550;9.964;2023-10-08T07:41:57;13.90;97.50
37285;DHT22;23172;53.550;9.964;2023-10-08T07:47:00;13.90;96.90
37285;DHT22;23172;53.550;9.964;2023-10-08T07:52:05;13.90;96.50
37285;DHT22;23172;53.550;9.964;2023-10-08T07:57:07;13.90;95.90
37285;DHT22;23172;53.550;9.964;2023-10-08T08:02:16;14.00;95.80
37285;DHT22;23172;53.550;9.964;2023-10-08T08:07:20;14.00;95.30
37285;DHT22;23172;53.550;9.964;2023-10-08T08:12:22;14.00;94.40
37285;DHT22;23172;53.550;9.964;2023-10-08T08:17:27;14.00;94.40
37285;DHT22;23172;53.550;9.964;2023-10-08T08:22:31;14.10;94.20
37285;DHT22;23172;53.550;9.964;2023-10-08T08:27:33;14.10;93.40
37285;DHT22;23172;53.550;9.964;2023-10-08T08:32:40;14.10;92.30
37285;DHT22;23172;53.550;9.964;2023-10-08T08:37:43;14.10;92.40
37285;DHT22;23172;53.550;9.964;2023-10-08T08:42:48;14.20;91.80
37285;DHT22;23172;53.550;9.964;2023-10-08T08:47:52;14.30;91.50
37285;DHT22;23172;53.550;9.964;2023-10-08T08:52:54;14.30;91.00
37285;DHT22;23172;53.550;9.964;2023-10-08T08:57:56;14.40;90.90
37285;DHT22;23172;53.550;9.964;2023-10-08T09:03:00;14.40;90.20
37285;DHT22;23172;53.550;9.964;2023-10-08T09:08:05;14.50;89.30
37285;DHT22;23172;53.550;9.964;2023-10-08T09:13:08;14.50;88.00
37285;DHT22;23172;53.550;9.964;2023-10-08T09:18:14;14.50;87.00
37285;DHT22;23172;53.550;9.964;2023-10-08T09:23:16;14.60;84.80
37285;DHT22;23172;53.550;9.964;2023-10-08T09:28:24;14.60;83.20
37285;DHT22;23172;53.550;9.964;2023-10-08T09:33:28;14.70;82.10
37285;DHT22;23172;53.550;9.964;2023-10-08T09:38:30;14.90;82.10
37285;DHT22;23172;53.550;9.964;2023-10-08T09:43:34;15.10;81.40
37285;DHT22;23172;53.550;9.964;2023-10-08T09:48:41;15.30;80.80
37285;DHT22;23172;53.550;9.964;2023-10-08T09:53:51;15.30;78.70
37285;DHT22;23172;53.550;9.964;2023-10-08T09:58:54;15.30;79.10
37285;DHT22;23172;53.550;9.964;2023-10-08T10:03:58;15.30;78.70
37285;DHT22;23172;53.550;9.964;2023-10-08T10:09:00;15.30;77.70
37285;DHT22;23172;53.550;9.964;2023-10-08T10:14:03;15.30;77.60
37285;DHT22;23172;53.550;9.964;2023-10-08T10:19:16;15.30;77.60
37285;DHT22;23172;53.550;9.964;2023-10-08T10:24:32;15.40;76.90
37285;DHT22;23172;53.550;9.964;2023-10-08T10:29:35;15.60;75.60
37285;DHT22;23172;53.550;9.964;2023-10-08T10:34:39;16.00;76.30
37285;DHT22;23172;53.550;9.964;2023-10-08T10:39:41;16.40;75.40
37285;DHT22;23172;53.550;9.964;2023-10-08T10:44:46;16.40;73.70
37285;DHT22;23172;53.550;9.964;2023-10-08T10:49:52;16.40;73.20
37285;DHT22;23172;53.550;9.964;2023-10-08T10:54:55;16.40;72.70
37285;DHT22;23172;53.550;9.964;2023-10-08T11:00:05;16.40;72.70
37285;DHT22;23172;53.550;9.964;2023-10-08T11:10:39;16.60;70.50
37285;DHT22;23172;53.550;9.964;2023-10-08T11:21:05;16.50;70.30
37285;DHT22;23172;53.550;9.964;2023-10-08T11:26:14;16.70;71.00
37285;DHT22;23172;53.550;9.964;2023-10-08T11:31:17;17.00;70.50
37285;DHT22;23172;53.550;9.964;2023-10-08T11:36:22;17.10;69.80
37285;DHT22;23172;53.550;9.964;2023-10-08T11:41:28;17.40;69.90
37285;DHT22;23172;53.550;9.964;2023-10-08T11:46:45;17.50;68.80
37285;DHT22;23172;53.550;9.964;2023-10-08T11:51:53;17.80;68.60
37285;DHT22;23172;53.550;9.964;2023-10-08T11:56:56;17.90;66.70
37285;DHT22;23172;53.550;9.964;2023-10-08T12:01:58;17.90;65.40
37285;DHT22;23172;53.550;9.964;2023-10-08T12:07:01;17.80;65.00
37285;DHT22;23172;53.550;9.964;2023-10-08T12:12:08;17.80;64.80
37285;DHT22;23172;53.550;9.964;2023-10-08T12:17:10;17.90;63.50
37285;DHT22;23172;53.550;9.964;2023-10-08T12:22:14;18.10;63.40
37285;DHT22;23172;53.550;9.964;2023-10-08T12:27:20;18.20;63.30
37285;DHT22;23172;53.550;9.964;2023-10-08T12:32:22;18.30;63.10
37285;DHT22;23172;53.550;9.964;2023-10-08T12:37:28;18.20;62.50
37285;DHT22;23172;53.550;9.964;2023-10-08T12:42:30;17.90;61.70
37285;DHT22;23172;53.550;9.964;2023-10-08T12:47:32;17.60;61.70
37285;DHT22;23172;53.550;9.964;2023-10-08T12:52:38;17.50;61.60
37285;DHT22;23172;53.550;9.964;2023-10-08T12:57:47;17.50;61.80
37285;DHT22;23172;53.550;9.964;2023-10-08T13:02:55;17.60;61.50
37285;DHT22;23172;53.550;9.964;2023-10-08T13:07:59;17.60;61.40
37285;DHT22;23172;53.550;9.964;2023-10-08T13:13:10;17.50;61.20
37285;DHT22;23172;53.550;9.964;2023-10-08T13:18:12;17.40;61.90
37285;DHT22;23172;53.550;9.964;2023-10-08T13:23:15;17.40;62.70
37285;DHT22;23172;53.550;9.964;2023-10-08T13:28:18;17.50;61.90
37285;DHT22;23172;53.550;9.964;2023-10-08T13:33:21;17.50;61.50
37285;DHT22;23172;53.550;9.964;2023-10-08T13:38:25;17.50;60.80
37285;DHT22;23172;53.550;9.964;2023-10-08T13:43:29;17.40;61.20
37285;DHT22;23172;53.550;9.964;2023-10-08T13:48:35;17.40;61.30
37285;DHT22;23172;53.550;9.964;2023-10-08T13:53:39;17.30;61.60
37285;DHT22;23172;53.550;9.964;2023-10-08T13:58:41;17.30;61.60
37285;DHT22;23172;53.550;9.964;2023-10-08T14:03:47;17.30;61.60
37285;DHT22;23172;53.550;9.964;2023-10-08T14:08:51;17.30;61.80
37285;DHT22;23172;53.550;9.964;2023-10-08T14:13:53;17.30;61.70
37285;DHT22;23172;53.550;9.964;2023-10-08T14:18:55;17.30;61.70
37285;DHT22;23172;53.550;9.964;2023-10-08T14:24:01;17.40;61.80
37285;DHT22;23172;53.550;9.964;2023-10-08T14:29:04;17.30;61.70
37285;DHT22;23172;53.550;9.964;2023-10-08T14:34:11;17.30;61.80
37285;DHT22;23172;53.550;9.964;2023-10-08T14:39:31;17.20;61.60
37285;DHT22;23172;53.550;9.964;2023-10-08T14:44:50;17.20;61.50
37285;DHT22;23172;53.550;9.964;2023-10-08T14:49:52;17.10;61.20
37285;DHT22;23172;53.550;9.964;2023-10-08T14:54:55;17.10;61.40
37285;DHT22;23172;53.550;9.964;2023-10-08T14:59:57;17.00;60.90
37285;DHT22;23172;53.550;9.964;2023-10-08T15:04:59;17.00;61.00
37285;DHT22;23172;53.550;9.964;2023-10-08T15:10:03;16.90;61.60
37285;DHT22;23172;53.550;9.964;2023-10-08T15:15:07;16.90;61.20
37285;DHT22;23172;53.550;9.964;2023-10-08T15:20:15;16.80;61.40
37285;DHT22;23172;53.550;9.964;2023-10-08T15:25:22;16.80;61.60
37285;DHT22;23172;53.550;9.964;2023-10-08T15:30:24;16.80;62.10
37285;DHT22;23172;53.550;9.964;2023-10-08T15:35:26;16.70;62.20
37285;DHT22;23172;53.550;9.964;2023-10-08T15:40:29;16.70;62.40
37285;DHT22;23172;53.550;9.964;2023-10-08T15:45:33;16.60;62.70
37285;DHT22;23172;53.550;9.964;2023-10-08T15:50:37;16.60;62.70
37285;DHT22;23172;53.550;9.964;2023-10-08T15:55:41;16.60;62.70
37285;DHT22;23172;53.550;9.964;2023-10-08T16:00:44;16.60;62.90
37285;DHT22;23172;53.550;9.964;2023-10-08T16:05:46;16.50;63.00
37285;DHT22;23172;53.550;9.964;2023-10-08T16:15:57;16.40;63.50
37285;DHT22;23172;53.550;9.964;2023-10-08T16:20:59;16.30;63.90
37285;DHT22;23172;53.550;9.964;2023-10-08T16:26:02;16.30;63.90
37285;DHT22;23172;53.550;9.964;2023-10-08T16:31:05;16.30;63.90
37285;DHT22;23172;53.550;9.964;2023-10-08T16:36:07;16.20;63.50
37285;DHT22;23172;53.550;9.964;2023-10-08T16:41:10;16.20;63.40
37285;DHT22;23172;53.550;9.964;2023-10-08T16:46:14;16.20;63.50
37285;DHT22;23172;53.550;9.964;2023-10-08T16:51:16;16.20;63.80
37285;DHT22;23172;53.550;9.964;2023-10-08T16:56:18;16.10;64.00
37285;DHT22;23172;53.550;9.964;2023-10-08T17:01:23;16.10;64.30
37285;DHT22;23172;53.550;9.964;2023-10-08T17:06:25;16.00;64.40
37285;DHT22;23172;53.550;9.964;2023-10-08T17:11:27;16.00;64.20
37285;DHT22;23172;53.550;9.964;2023-10-08T17:16:30;16.00;63.70
37285;DHT22;23172;53.550;9.964;2023-10-08T17:21:32;16.00;63.60
37285;DHT22;23172;53.550;9.964;2023-10-08T17:26:34;15.90;63.70
37285;DHT22;23172;53.550;9.964;2023-10-08T17:31:38;15.90;63.80
37285;DHT22;23172;53.550;9.964;2023-10-08T17:36:40;16.00;63.70
37285;DHT22;23172;53.550;9.964;2023-10-08T17:41:44;15.90;63.80
37285;DHT22;23172;53.550;9.964;2023-10-08T17:46:48;15.90;63.70
37285;DHT22;23172;53.550;9.964;2023-10-08T17:51:50;15.90;63.70
37285;DHT22;23172;53.550;9.964;2023-10-08T17:56:52;15.90;64.00
37285;DHT22;23172;53.550;9.964;2023-10-08T18:01:55;15.90;64.20
37285;DHT22;23172;53.550;9.964;2023-10-08T18:06:57;15.90;64.50
37285;DHT22;23172;53.550;9.964;2023-10-08T18:11:59;15.90;64.80
37285;DHT22;23172;53.550;9.964;2023-10-08T18:17:04;15.90;65.10
37285;DHT22;23172;53.550;9.964;2023-10-08T18:22:06;15.80;65.20
37285;DHT22;23172;53.550;9.964;2023-10-08T18:27:09;15.80;65.00
37285;DHT22;23172;53.550;9.964;2023-10-08T18:32:14;15.80;65.80
37285;DHT22;23172;53.550;9.964;2023-10-08T18:37:15;15.80;65.20
37285;DHT22;23172;53.550;9.964;2023-10-08T18:42:18;15.70;65.50
37285;DHT22;23172;53.550;9.964;2023-10-08T18:47:23;15.70;65.90
37285;DHT22;23172;53.550;9.964;2023-10-08T18:52:28;15.70;66.30
37285;DHT22;23172;53.550;9.964;2023-10-08T18:57:30;15.60;66.50
37285;DHT22;23172;53.550;9.964;2023-10-08T19:02:33;15.70;66.60
37285;DHT22;23172;53.550;9.964;2023-10-08T19:07:36;15.60;66.80
37285;DHT22;23172;53.550;9.964;2023-10-08T19:12:39;15.60;67.30
37285;DHT22;23172;53.550;9.964;2023-10-08T19:17:43;15.60;67.70
37285;DHT22;23172;53.550;9.964;2023-10-08T19:22:45;15.60;68.10
37285;DHT22;23172;53.550;9.964;2023-10-08T19:27:47;15.60;68.20
37285;DHT22;23172;53.550;9.964;2023-10-08T19:32:50;15.60;68.40
37285;DHT22;23172;53.550;9.964;2023-10-08T19:37:52;15.60;68.70
37285;DHT22;23172;53.550;9.964;2023-10-08T19:42:54;15.60;68.70
37285;DHT22;23172;53.550;9.964;2023-10-08T19:47:57;15.60;68.70
37285;DHT22;23172;53.550;9.964;2023-10-08T19:52:59;15.60;68.80
37285;DHT22;23172;53.550;9.964;2023-10-08T19:58:02;15.60;69.90
37285;DHT22;23172;53.550;9.964;2023-10-08T20:03:05;15.60;69.80
37285;DHT22;23172;53.550;9.964;2023-10-08T20:08:08;15.50;70.70
37285;DHT22;23172;53.550;9.964;2023-10-08T20:13:11;15.40;71.60
37285;DHT22;23172;53.550;9.964;2023-10-08T20:18:17;15.30;72.50
37285;DHT22;23172;53.550;9.964;2023-10-08T20:23:21;15.30;73.20
37285;DHT22;23172;53.550;9.964;2023-10-08T20:28:29;15.20;73.90
37285;DHT22;23172;53.550;9.964;2023-10-08T20:33:34;15.20;74.50
37285;DHT22;23172;53.550;9.964;2023-10-08T20:38:36;15.20;75.00
37285;DHT22;23172;53.550;9.964;2023-10-08T20:43:38;15.20;75.40
37285;DHT22;23172;53.550;9.964;2023-10-08T20:48:42;15.10;75.70
37285;DHT22;23172;53.550;9.964;2023-10-08T20:53:44;15.10;76.00
37285;DHT22;23172;53.550;9.964;2023-10-08T20:58:47;15.10;76.40
37285;DHT22;23172;53.550;9.964;2023-10-08T21:03:50;15.10;77.00
37285;DHT22;23172;53.550;9.964;2023-10-08T21:08:52;15.10;77.70
37285;DHT22;23172;53.550;9.964;2023-10-08T21:13:56;15.10;78.20
37285;DHT22;23172;53.550;9.964;2023-10-08T21:18:59;15.00;78.80
37285;DHT22;23172;53.550;9.964;2023-10-08T21:24:01;15.00;79.70
37285;DHT22;23172;53.550;9.964;2023-10-08T21:29:03;15.00;80.40
37285;DHT22;23172;53.550;9.964;2023-10-08T21:34:06;15.00;80.70
37285;DHT22;23172;53.550;9.964;2023-10-08T21:39:09;15.00;81.40
37285;DHT22;23172;53.550;9.964;2023-10-08T21:44:11;15.00;82.10
37285;DHT22;23172;53.550;9.964;2023-10-08T21:49:16;15.00;83.00
37285;DHT22;23172;53.550;9.964;2023-10-08T21:54:18;15.00;83.80
37285;DHT22;23172;53.550;9.964;2023-10-08T21:59:20;15.00;84.60
37285;DHT22;23172;53.550;9.964;2023-10-08T22:04:23;14.90;85.00
37285;DHT22;23172;53.550;9.964;2023-10-08T22:09:26;14.90;86.00
37285;DHT22;23172;53.550;9.964;2023-10-08T22:14:30;14.90;86.50
37285;DHT22;23172;53.550;9.964;2023-10-08T22:19:34;14.80;87.30
37285;DHT22;23172;53.550;9.964;2023-10-08T22:24:43;14.80;88.10
37285;DHT22;23172;53.550;9.964;2023-10-08T22:29:45;14.80;88.90
37285;DHT22;23172;53.550;9.964;2023-10-08T22:34:50;14.80;89.80
37285;DHT22;23172;53.550;9.964;2023-10-08T22:39:56;14.80;90.10
37285;DHT22;23172;53.550;9.964;2023-10-08T22:44:59;14.70;90.40
37285;DHT22;23172;53.550;9.964;2023-10-08T22:50:17;14.70;90.70
37285;DHT22;23172;53.550;9.964;2023-10-08T22:55:36;14.70;91.00
37285;DHT22;23172;53.550;9.964;2023-10-08T23:00:39;14.70;91.20
37285;DHT22;23172;53.550;9.964;2023-10-08T23:05:42;14.60;91.50
37285;DHT22;23172;53.550;9.964;2023-10-08T23:10:47;14.60;91.80
37285;DHT22;23172;53.550;9.964;2023-10-08T23:15:49;14.60;92.10
37285;DHT22;23172;53.550;9.964;2023-10-08T23:20:56;14.50;92.70
37285;DHT22;23172;53.550;9.964;2023-10-08T23:25:58;14.50;93.00
37285;DHT22;23172;53.550;9.964;2023-10-08T23:31:02;14.50;93.50
37285;DHT22;23172;53.550;9.964;2023-10-08T23:36:06;14.50;93.60
37285;DHT22;23172;53.550;9.964;2023-10-08T23:41:10;14.50;94.00
37285;DHT22;23172;53.550;9.964;2023-10-08T23:46:18;14.50;94.40
37285;DHT22;23172;53.550;9.964;2023-10-08T23:51:24;14.50;94.80
37285;DHT22;23172;53.550;9.964;2023-10-08T23:56:32;14.50;95.10
